Data for 12/08/2009

Time Sea-Level Adjusted Pressure Absolute Pressure Temperature Relative Humidity Dew Point   
(mb) (inHg) (mb) (inHg) (C) (F) (%) (C) (F)
00:05 1010 29.83 839 24.78 -25 -13 67 -29.5 -21.1
00:10 1010 29.83 839 24.78 -25 -13 67 -29.4 -20.9
00:15 1010 29.83 839 24.78 -24.9 -12.9 66 -29.5 -21.2
00:20 1010 29.83 839 24.78 -24.9 -12.7 66 -29.5 -21.1
00:25 1010 29.83 839 24.78 -24.8 -12.6 66 -29.4 -20.9
00:30 1010 29.83 839 24.78 -24.7 -12.5 66 -29.3 -20.7
00:35 1010 29.83 839 24.78 -24.8 -12.6 67 -29.3 -20.7
00:40 1010 29.83 839 24.78 -25.1 -13.2 67 -29.6 -21.2
00:45 1010 29.83 839 24.78 -25.5 -14 69 -29.7 -21.5
00:50 1010 29.83 839 24.78 -25.6 -14 68 -29.8 -21.7
00:55 1010 29.83 839 24.78 -25.7 -14.3 69 -29.8 -21.7
01:00 1010 29.83 839 24.78 -25.4 -13.8 69 -29.6 -21.3
01:05 1010 29.83 839 24.78 -25.6 -14 68 -29.8 -21.7
01:10 1010 29.83 839 24.78 -25.8 -14.4 69 -29.9 -21.9
01:15 1010 29.83 839 24.78 -26 -14.8 69 -30.1 -22.1
01:20 1010 29.83 839 24.78 -26.2 -15.2 70 -30.2 -22.4
01:25 1009 29.8 839 24.78 -26.3 -15.4 70 -30.3 -22.6
01:30 1009 29.8 839 24.78 -26.4 -15.5 70 -30.3 -22.6
01:35 1009 29.8 839 24.78 -26.3 -15.4 73 -29.8 -21.6
01:40 1009 29.8 839 24.78 -26.4 -15.5 73 -29.8 -21.7
01:45 1009 29.8 839 24.78 -26.4 -15.4 75 -29.6 -21.3
01:50 1009 29.8 839 24.78 -26.2 -15.1 71 -29.9 -21.9
01:55 1009 29.8 839 24.78 -26.2 -15.2 76 -29.3 -20.8
02:00 1009 29.8 839 24.78 -26.3 -15.3 73 -29.8 -21.7
02:05 1009 29.8 839 24.78 -26.2 -15.2 72 -29.9 -21.7
02:10 1009 29.8 839 24.78 -26.3 -15.3 71 -30 -22.1
02:15 1010 29.83 839 24.78 -26.4 -15.5 71 -30.2 -22.3
02:20 1010 29.83 839 24.78 -26.3 -15.4 69 -30.4 -22.7
02:25 1010 29.83 839 24.78 -26.3 -15.4 69 -30.4 -22.7
02:30 1010 29.83 839 24.78 -26.4 -15.5 70 -30.4 -22.7
02:35 1010 29.83 839 24.78 -26.5 -15.7 71 -30.3 -22.6
02:40 1010 29.83 839 24.78 -26.5 -15.6 70 -30.4 -22.8
02:45 1010 29.83 839 24.78 -26.5 -15.7 70 -30.4 -22.7
02:50 1010 29.83 839 24.78 -26.6 -15.9 70 -30.6 -23.1
02:55 1010 29.83 839 24.78 -26.8 -16.3 71 -30.7 -23.2
03:00 1010 29.83 839 24.78 -26.8 -16.3 72 -30.5 -23
03:05 1010 29.83 839 24.78 -27 -16.6 73 -30.5 -22.9
03:10 1010 29.83 839 24.78 -27.2 -17 74 -30.5 -23
03:15 1010 29.83 839 24.78 -27.4 -17.3 75 -30.6 -23.1
03:20 1010 29.83 839 24.78 -27.4 -17.3 74 -30.7 -23.3
03:25 1010 29.83 839 24.78 -27.2 -17 73 -30.7 -23.3
03:30 1010 29.83 839 24.78 -27 -16.6 74 -30.4 -22.7
03:35 1010 29.83 839 24.78 -26.7 -16.1 72 -30.3 -22.6
03:40 1010 29.83 839 24.78 -26.9 -16.3 73 -30.3 -22.5
03:45 1010 29.83 839 24.78 -27 -16.6 73 -30.5 -22.9
03:50 1010 29.83 839 24.78 -27.4 -17.2 74 -30.6 -23.2
03:55 1010 29.83 839 24.78 -27.6 -17.6 75 -30.7 -23.2
04:00 1010 29.83 839 24.78 -27.4 -17.4 75 -30.6 -23
04:05 1010 29.83 839 24.78 -27.5 -17.5 77 -30.5 -22.8
04:10 1010 29.83 839 24.78 -27.5 -17.5 76 -30.5 -23
04:15 1010 29.83 839 24.78 -27.5 -17.6 79 -30.1 -22.2
04:20 1010 29.83 839 24.78 -27.6 -17.7 72 -31.3 -24.3
04:25 1010 29.83 839 24.78 -28 -18.5 76 -31.1 -23.9
04:30 1010 29.83 839 24.78 -28 -18.5 75 -31.2 -24.2
04:35 1010 29.83 839 24.78 -28.1 -18.6 74 -31.3 -24.4
04:40 1010 29.83 839 24.78 -27.9 -18.1 76 -30.9 -23.6
04:45 1010 29.83 839 24.78 -27.8 -18 75 -30.9 -23.7
04:50 1010 29.83 839 24.78 -28.1 -18.6 76 -31.1 -24
04:55 1010 29.83 839 24.78 -28.1 -18.6 76 -31.1 -23.9
05:00 1010 29.83 839 24.78 -28.3 -19 78 -31.1 -23.9
05:05 1010 29.83 840 24.81 -28.6 -19.6 76 -31.7 -25
05:10 1010 29.83 840 24.81 -29.2 -20.5 76 -32.2 -25.9
05:15 1010 29.83 840 24.81 -29.4 -20.9 75 -32.6 -26.6
05:20 1010 29.83 840 24.81 -29.7 -21.4 74 -32.9 -27.2
05:25 1010 29.83 840 24.81 -29.9 -21.7 74 -33.1 -27.6
05:30 1010 29.83 840 24.81 -29.8 -21.7 74 -33 -27.4
05:35 1010 29.83 840 24.81 -29.4 -20.9 74 -32.6 -26.7
05:40 1011 29.85 840 24.81 -28.9 -20.1 73 -32.3 -26.2
05:45 1011 29.85 840 24.81 -28.7 -19.7 73 -32.1 -25.8
05:50 1011 29.85 840 24.81 -28.6 -19.6 74 -32 -25.5
05:55 1011 29.85 840 24.81 -28.7 -19.7 75 -31.9 -25.5
06:00 1011 29.85 840 24.81 -28.7 -19.7 75 -31.9 -25.5
06:05 1011 29.85 840 24.81 -28.8 -19.9 75 -32 -25.6
06:10 1011 29.85 840 24.81 -28.9 -20 75 -32 -25.7
06:15 1011 29.85 840 24.81 -28.9 -20.1 74 -32.2 -26
06:20 1011 29.85 840 24.81 -28.8 -19.8 73 -32.2 -25.9
06:25 1011 29.85 840 24.81 -28.7 -19.6 73 -32.1 -25.7
06:30 1011 29.85 840 24.81 -28.5 -19.4 72 -32.1 -25.7
06:35 1011 29.85 840 24.81 -28.6 -19.5 72 -32.1 -25.8
06:40 1011 29.85 840 24.81 -28.6 -19.4 73 -32 -25.6
06:45 1011 29.85 840 24.81 -28.5 -19.2 73 -31.9 -25.4
06:50 1011 29.85 840 24.81 -28.4 -19.1 72 -32 -25.6
06:55 1011 29.85 840 24.81 -28.4 -19.1 71 -32.1 -25.8
07:00 1011 29.85 841 24.83 -28.4 -19.2 72 -32 -25.7
07:05 1011 29.85 841 24.83 -28.4 -19.2 72 -32.1 -25.7
07:10 1011 29.85 841 24.83 -28.4 -19.1 71 -32.1 -25.8
07:15 1011 29.85 841 24.83 -28.3 -19 71 -32.1 -25.8
07:20 1012 29.88 841 24.83 -28.3 -19 71 -32 -25.6
07:25 1012 29.88 841 24.83 -28.3 -18.9 71 -32 -25.6
07:30 1012 29.88 841 24.83 -28.6 -19.4 73 -32 -25.7
07:35 1012 29.88 841 24.83 -28.6 -19.5 71 -32.3 -26.2
07:40 1012 29.88 841 24.83 -29 -20.1 73 -32.3 -26.2
07:45 1012 29.88 841 24.83 -28.8 -19.8 74 -32.1 -25.8
07:50 1012 29.88 841 24.83 -28.2 -18.8 71 -31.9 -25.5
07:55 1012 29.88 841 24.83 -28.2 -18.7 74 -31.5 -24.8
08:00 1012 29.88 841 24.83 -28.7 -19.6 73 -32.1 -25.9
08:05 1012 29.88 841 24.83 -28.9 -20 71 -32.6 -26.6
08:10 1012 29.88 841 24.83 -28.9 -20.1 70 -32.8 -27
08:15 1012 29.88 841 24.83 -29.2 -20.6 72 -32.8 -27.1
08:20 1012 29.88 842 24.86 -29.2 -20.5 72 -32.6 -26.8
08:25 1012 29.88 842 24.86 -28.9 -20 72 -32.4 -26.3
08:30 1012 29.88 842 24.86 -28.8 -19.8 72 -32.4 -26.3
08:35 1012 29.88 842 24.86 -28.7 -19.6 72 -32.3 -26.2
08:40 1013 29.91 842 24.86 -28.4 -19.2 71 -32.2 -25.9
08:45 1013 29.91 842 24.86 -28.1 -18.5 70 -32 -25.6
08:50 1013 29.91 842 24.86 -27.9 -18.2 70 -31.8 -25.2
08:55 1013 29.91 842 24.86 -27.4 -17.3 70 -31.3 -24.4
09:00 1013 29.91 842 24.86 -26.9 -16.4 70 -30.9 -23.5
09:05 1013 29.91 842 24.86 -26.5 -15.7 67 -30.9 -23.7
09:10 1013 29.91 842 24.86 -26.5 -15.7 68 -30.8 -23.4
09:15 1013 29.91 842 24.86 -26 -14.7 66 -30.6 -23
09:20 1013 29.91 842 24.86 -25.8 -14.4 64 -30.7 -23.2
09:25 1013 29.91 843 24.89 -25.4 -13.8 63 -30.5 -22.9
09:30 1013 29.91 843 24.89 -25.2 -13.3 62 -30.4 -22.8
09:35 1014 29.94 843 24.89 -24.8 -12.7 64 -29.8 -21.6
09:40 1014 29.94 843 24.89 -24.2 -11.5 61 -29.7 -21.5
09:45 1014 29.94 843 24.89 -23.7 -10.6 60 -29.5 -21.1
09:50 1014 29.94 843 24.89 -23.6 -10.4 58 -29.6 -21.3
09:55 1014 29.94 843 24.89 -23.4 -10.2 59 -29.3 -20.7
10:00 1014 29.94 843 24.89 -23.5 -10.2 59 -29.3 -20.7
10:05 1014 29.94 843 24.89 -23.8 -10.8 59 -29.7 -21.4
10:10 1014 29.94 843 24.89 -23.7 -10.7 60 -29.5 -21.2
10:15 1014 29.94 843 24.89 -23.8 -10.8 59 -29.7 -21.5
10:20 1014 29.94 843 24.89 -24 -11.2 60 -29.8 -21.6
10:25 1014 29.94 843 24.89 -24.3 -11.7 63 -29.5 -21
10:30 1014 29.94 843 24.89 -23.9 -11 60 -29.6 -21.2
10:35 1014 29.94 843 24.89 -23.5 -10.3 59 -29.4 -21
10:40 1014 29.94 843 24.89 -23.5 -10.4 60 -29.4 -20.8
10:45 1014 29.94 843 24.89 -23.7 -10.7 62 -29.2 -20.5
10:50 1014 29.94 843 24.89 -23 -9.5 60 -28.9 -20
10:55 1014 29.94 843 24.89 -22.4 -8.3 58 -28.6 -19.4
11:00 1014 29.94 843 24.89 -22.9 -9.2 61 -28.5 -19.3
11:05 1014 29.94 843 24.89 -23.1 -9.5 60 -28.8 -19.8
11:10 1014 29.94 843 24.89 -23 -9.4 60 -28.7 -19.6
11:15 1014 29.94 843 24.89 -23.5 -10.2 62 -28.8 -19.8
11:20 1014 29.94 843 24.89 -23.5 -10.3 64 -28.6 -19.5
11:25 1014 29.94 843 24.89 -22.9 -9.3 62 -28.3 -18.9
11:30 1014 29.94 843 24.89 -22.7 -8.9 61 -28.3 -18.9
11:35 1014 29.94 843 24.89 -23 -9.4 63 -28.2 -18.7
11:40 1014 29.94 843 24.89 -22.9 -9.2 63 -28.2 -18.7
11:45 1014 29.94 843 24.89 -22.7 -8.9 62 -28.1 -18.6
11:50 1014 29.94 843 24.89 -22.2 -7.9 59 -28.1 -18.7
11:55 1014 29.94 843 24.89 -21.9 -7.4 57 -28.2 -18.8
12:00 1014 29.94 843 24.89 -22.7 -8.8 63 -27.9 -18.2
12:05 1014 29.94 843 24.89 -23.3 -10 63 -28.5 -19.3
12:10 1014 29.94 843 24.89 -23.3 -9.9 63 -28.4 -19.1
12:15 1014 29.94 843 24.89 -23.2 -9.7 62 -28.5 -19.3
12:20 1014 29.94 843 24.89 -23.3 -10 63 -28.4 -19.2
12:25 1014 29.94 843 24.89 -22.6 -8.6 59 -28.5 -19.3
12:30 1014 29.94 843 24.89 -22.3 -8.2 58 -28.4 -19.2
12:35 1014 29.94 843 24.89 -22.7 -8.8 61 -28.3 -19
12:40 1014 29.94 843 24.89 -22.1 -7.8 60 -27.9 -18.3
12:45 1014 29.94 843 24.89 -21.3 -6.3 56 -27.9 -18.3
12:50 1014 29.94 843 24.89 -21.5 -6.7 56 -28.1 -18.6
12:55 1014 29.94 843 24.89 -22 -7.5 58 -28.1 -18.6
13:00 1014 29.94 843 24.89 -21.6 -6.8 58 -27.8 -18
13:05 1014 29.94 843 24.89 -21.6 -6.8 57 -28 -18.4
13:10 1014 29.94 843 24.89 -21.8 -7.2 59 -27.7 -17.9
13:15 1014 29.94 843 24.89 -22 -7.7 60 -27.8 -18.1
13:20 1014 29.94 843 24.89 -22.1 -7.8 60 -28 -18.4
13:25 1014 29.94 843 24.89 -21.6 -6.8 58 -27.9 -18.2
13:30 1014 29.94 843 24.89 -21.7 -7.1 58 -27.9 -18.2
13:35 1014 29.94 843 24.89 -21.7 -7 59 -27.7 -17.9
13:40 1014 29.94 843 24.89 -21.4 -6.5 58 -27.7 -17.9
13:45 1014 29.94 843 24.89 -21.3 -6.4 58 -27.6 -17.6
13:50 1014 29.94 843 24.89 -21.4 -6.6 56 -28.1 -18.6
13:55 1014 29.94 843 24.89 -22 -7.6 58 -28.3 -18.9
14:00 1014 29.94 843 24.89 -21.9 -7.5 57 -28.3 -18.9
14:05 1014 29.94 843 24.89 -21.5 -6.6 58 -27.7 -17.9
14:10 1014 29.94 843 24.89 -21 -5.8 56 -27.6 -17.6
14:15 1014 29.94 843 24.89 -21.4 -6.5 57 -27.9 -18.2
14:20 1014 29.94 843 24.89 -21.4 -6.5 57 -27.8 -18
14:25 1014 29.94 843 24.89 -21.3 -6.4 58 -27.6 -17.7
14:30 1014 29.94 843 24.89 -21.3 -6.4 58 -27.6 -17.7
14:35 1014 29.94 843 24.89 -21.5 -6.7 58 -27.8 -18
14:40 1014 29.94 843 24.89 -21.7 -7.1 57 -28 -18.5
14:45 1014 29.94 843 24.89 -21.7 -7.1 58 -27.9 -18.2
14:50 1014 29.94 843 24.89 -21.5 -6.7 57 -27.9 -18.2
14:55 1014 29.94 843 24.89 -21.4 -6.4 57 -27.8 -18.1
15:00 1014 29.94 843 24.89 -21 -5.9 56 -27.6 -17.6
15:05 1014 29.94 844 24.92 -21 -5.8 55 -27.8 -18.1
15:10 1014 29.94 844 24.92 -21 -5.7 55 -27.8 -18
15:15 1014 29.94 844 24.92 -20.7 -5.3 54 -27.7 -17.9
15:20 1014 29.94 844 24.92 -20.8 -5.5 55 -27.7 -17.8
15:25 1014 29.94 844 24.92 -20.9 -5.6 55 -27.7 -17.9
15:30 1014 29.94 844 24.92 -21.1 -6 55 -27.8 -18.1
15:35 1014 29.94 844 24.92 -21 -5.9 55 -27.8 -18.1
15:40 1014 29.94 844 24.92 -20.9 -5.6 54 -27.9 -18.3
15:45 1014 29.94 844 24.92 -21.1 -5.9 55 -27.9 -18.2
15:50 1014 29.94 844 24.92 -21.2 -6.1 55 -28 -18.4
15:55 1014 29.94 844 24.92 -21.2 -6.1 58 -27.4 -17.3
16:00 1015 29.97 844 24.92 -21 -5.9 58 -27.3 -17.1
16:05 1015 29.97 844 24.92 -21.7 -7.1 63 -27.1 -16.7
16:10 1015 29.97 844 24.92 -21.6 -6.8 61 -27.2 -17
16:15 1015 29.97 844 24.92 -21.4 -6.6 61 -27.1 -16.8
16:20 1015 29.97 844 24.92 -21.8 -7.2 63 -27 -16.6
16:25 1015 29.97 844 24.92 -22.6 -8.7 66 -27.2 -17
16:30 1015 29.97 844 24.92 -22.9 -9.3 69 -27.2 -17
16:35 1015 29.97 844 24.92 -23 -9.3 68 -27.3 -17.1
16:40 1015 29.97 844 24.92 -23.3 -9.9 70 -27.3 -17.2
16:45 1015 29.97 844 24.92 -23.4 -10.1 70 -27.4 -17.3
16:50 1015 29.97 844 24.92 -23.6 -10.4 72 -27.3 -17.1
16:55 1015 29.97 844 24.92 -23.7 -10.6 72 -27.4 -17.3
17:00 1015 29.97 844 24.92 -23.7 -10.7 73 -27.4 -17.2
17:05 1015 29.97 844 24.92 -23.7 -10.6 73 -27.3 -17.1
17:10 1015 29.97 844 24.92 -23.9 -11 71 -27.7 -17.9
17:15 1015 29.97 844 24.92 -24.2 -11.6 71 -28.1 -18.6
17:20 1015 29.97 844 24.92 -24.6 -12.3 74 -28 -18.5
17:25 1015 29.97 844 24.92 -24.7 -12.5 73 -28.3 -19
17:30 1015 29.97 844 24.92 -25 -13.1 73 -28.6 -19.4
17:35 1014 29.94 844 24.92 -25.3 -13.6 73 -28.8 -19.8
17:40 1014 29.94 844 24.92 -25.5 -13.9 75 -28.8 -19.8
17:45 1015 29.97 844 24.92 -25.5 -13.9 74 -28.9 -20
17:50 1015 29.97 844 24.92 -25.4 -13.8 75 -28.7 -19.7
17:55 1015 29.97 844 24.92 -25.4 -13.7 74 -28.8 -19.8
18:00 1015 29.97 844 24.92 -25.7 -14.2 74 -29.1 -20.4
18:05 1015 29.97 844 24.92 -25.9 -14.6 74 -29.2 -20.6
18:10 1015 29.97 844 24.92 -26 -14.7 75 -29.1 -20.5
18:15 1015 29.97 844 24.92 -26.2 -15.2 76 -29.3 -20.7
18:20 1015 29.97 844 24.92 -26.3 -15.4 76 -29.4 -21
18:25 1015 29.97 844 24.92 -26.1 -15 75 -29.4 -20.9
18:30 1015 29.97 844 24.92 -26.1 -14.9 74 -29.4 -21
18:35 1015 29.97 844 24.92 -26.1 -15 74 -29.4 -21
18:40 1015 29.97 844 24.92 -26.5 -15.7 75 -29.7 -21.4
18:45 1015 29.97 844 24.92 -26.8 -16.3 75 -30 -22.1
18:50 1015 29.97 844 24.92 -27 -16.7 75 -30.2 -22.3
18:55 1015 29.97 844 24.92 -27.1 -16.8 75 -30.2 -22.4
19:00 1015 29.97 844 24.92 -27 -16.6 75 -30.2 -22.4
19:05 1015 29.97 844 24.92 -26.8 -16.3 74 -30.1 -22.2
19:10 1015 29.97 844 24.92 -26.6 -15.9 73 -30.1 -22.1
19:15 1015 29.97 844 24.92 -26.6 -15.9 72 -30.2 -22.4
19:20 1015 29.97 844 24.92 -26.7 -16 72 -30.3 -22.5
19:25 1015 29.97 844 24.92 -26.8 -16.2 73 -30.3 -22.5
19:30 1015 29.97 844 24.92 -26.8 -16.2 73 -30.2 -22.4
19:35 1015 29.97 844 24.92 -26.8 -16.2 73 -30.2 -22.4
19:40 1015 29.97 844 24.92 -26.7 -16 73 -30.2 -22.4
19:45 1015 29.97 844 24.92 -26.7 -16.1 72 -30.4 -22.8
19:50 1015 29.97 844 24.92 -26.9 -16.5 72 -30.5 -23
19:55 1015 29.97 844 24.92 -27.2 -16.9 73 -30.6 -23.1
20:00 1015 29.97 844 24.92 -27.2 -16.9 74 -30.5 -23
20:05 1015 29.97 844 24.92 -27 -16.6 73 -30.4 -22.8
20:10 1015 29.97 844 24.92 -26.9 -16.4 73 -30.3 -22.5
20:15 1015 29.97 844 24.92 -26.8 -16.2 73 -30.3 -22.5
20:20 1015 29.97 844 24.92 -26.8 -16.2 72 -30.4 -22.7
20:25 1015 29.97 844 24.92 -26.9 -16.4 73 -30.5 -22.8
20:30 1015 29.97 844 24.92 -27.1 -16.7 73 -30.6 -23.1
20:35 1015 29.97 844 24.92 -27 -16.6 72 -30.6 -23
20:40 1015 29.97 844 24.92 -27.1 -16.8 73 -30.5 -23
20:45 1015 29.97 844 24.92 -27.2 -16.9 73 -30.7 -23.3
20:50 1015 29.97 844 24.92 -27.1 -16.7 72 -30.6 -23.1
20:55 1015 29.97 844 24.92 -27 -16.6 72 -30.7 -23.2
21:00 1015 29.97 844 24.92 -27.1 -16.7 72 -30.7 -23.2
21:05 1015 29.97 844 24.92 -27.2 -16.9 72 -30.8 -23.4
21:10 1015 29.97 844 24.92 -27.1 -16.7 73 -30.6 -23.1
21:15 1015 29.97 844 24.92 -27 -16.6 73 -30.5 -22.9
21:20 1015 29.97 844 24.92 -27 -16.6 73 -30.5 -22.8
21:25 1015 29.97 844 24.92 -27.1 -16.7 72 -30.7 -23.2
21:30 1015 29.97 844 24.92 -27.1 -16.8 72 -30.7 -23.2
21:35 1015 29.97 844 24.92 -27.1 -16.8 72 -30.7 -23.3
21:40 1015 29.97 844 24.92 -27 -16.7 72 -30.7 -23.2
21:45 1015 29.97 844 24.92 -27 -16.6 72 -30.6 -23.2
21:50 1015 29.97 844 24.92 -27 -16.5 71 -30.7 -23.2
21:55 1014 29.94 844 24.92 -26.9 -16.5 71 -30.7 -23.2
22:00 1014 29.94 844 24.92 -27.1 -16.7 73 -30.6 -23.1
22:05 1014 29.94 843 24.89 -27.2 -16.9 73 -30.6 -23.1
22:10 1014 29.94 843 24.89 -27 -16.7 73 -30.5 -22.9
22:15 1014 29.94 843 24.89 -27 -16.6 73 -30.4 -22.7
22:20 1014 29.94 843 24.89 -26.9 -16.3 73 -30.4 -22.7
22:25 1014 29.94 843 24.89 -26.7 -16.1 73 -30.3 -22.5
22:30 1014 29.94 843 24.89 -26.7 -16 72 -30.3 -22.5
22:35 1014 29.94 843 24.89 -26.7 -16 72 -30.3 -22.5
22:40 1014 29.94 843 24.89 -26.7 -16 73 -30.2 -22.4
22:45 1014 29.94 843 24.89 -26.5 -15.8 73 -30 -22
22:50 1014 29.94 843 24.89 -26.5 -15.7 74 -29.9 -21.9
22:55 1014 29.94 843 24.89 -26.5 -15.7 74 -29.8 -21.7
23:00 1014 29.94 843 24.89 -26.5 -15.6 75 -29.7 -21.5
23:05 1014 29.94 843 24.89 -26.4 -15.6 73 -29.9 -21.8
23:10 1014 29.94 843 24.89 -26.6 -15.9 74 -30 -22
23:15 1014 29.94 843 24.89 -26.6 -15.9 74 -29.9 -21.8
23:20 1014 29.94 843 24.89 -26.3 -15.4 73 -29.8 -21.6
23:25 1014 29.94 843 24.89 -26.1 -15 72 -29.8 -21.6
23:30 1014 29.94 843 24.89 -26.1 -14.9 72 -29.7 -21.4
23:35 1014 29.94 843 24.89 -25.9 -14.6 72 -29.5 -21.1
23:40 1014 29.94 843 24.89 -25.8 -14.5 73 -29.3 -20.8
23:45 1014 29.94 843 24.89 -25.9 -14.6 73 -29.3 -20.8
23:50 1014 29.94 843 24.89 -25.9 -14.5 73 -29.3 -20.8
23:55 1013 29.91 843 24.89 -25.9 -14.5 74 -29.2 -20.6
24:00 1013 29.91 842 24.86 -25.9 -14.6 74 -29.2 -20.6